メインページ
METAR-TAF:

METAR-TAF

空港 :

ミンスク第2空港

ミンスク, ベラルーシ

緯度: 53-56N, 経度: 027-38E, 海抜: 234m

現時点の気象観測

当レポートは31分前の01:00(UTC)に作成
西の風 4kt、西/南西から西/北西の間で変化する
気温 -8°C
湿度 92%
気圧 1014 hPa
視程10km以上
高度2300ftの雲はほとんどない

METAR: UMMS 210100Z 26002MPS 240V300 9999 FEW023 M08/M09 Q1014 R31/550532 NOSIG

時間: 04:31 (01:31 UTC)

予報

当レポートは2時間28分前の23:03(UTC)に作成
予報は21日の 00時(UTC)から 21日の 24時(UTC)まで有効
西/北西の風 10kt、最大19ktの突風を伴う
視程: 5000m
高度500ftの千切れ雲あり
21日の 00時(UTC)から 21日の 06時(UTC)まで一時的に
西の風 14kt、最大23ktの突風を伴う
視程: 0500m
高度300ftの曇り
高度1000ftの千切れ雲あり, 積乱雲.
激しいにわか雪, 高い地吹雪
21日の 06時(UTC)から 21日の 24時(UTC)まで一時的に
西の風 16kt、最大25ktの突風を伴う
視程: 3000m
高度300ftの千切れ雲あり
高度1500ftの千切れ雲あり, 積乱雲.
弱いにわか雪, 高い地吹雪

TAF: UMMS 202303Z 2100/2124 29005G10MPS 5000 BR BKN005 TEMPO 2100/2106 27007G12MPS 0500 +SHSN BLSN OVC003 BKN010CB TEMPO 2106/2124 27008G13MPS 3000 -SHSN BLSN BKN003 BKN015CB

4,000以上の空港の気象観測と天気予報(METAR報とTAF報)

利用可能な観測所は地図上に黄色い丸と赤い丸で示す。

丸の上にカーソルを重ねると観測所名を参照できる。

次にクリックすると気象観測と天気予報を参照できる。

マップの切り替え:黒色「×」印の緑ボタンをクリックして拡大、「-」印の緑ボタンをクリックして縮小、緑色の三角印をクリックして隣りの地図に切り替え


METAR-TAF: